Atlanta, Kansas
Current Conditions -  °F | °C
As of 9:55 PM on Tuesday 25 Nov 2014 (Local Time) from KEQA Reporting Station
Overcast Overcast  
Wind Chill:   Ceiling: 11000
Heat Index:   Visibility: 10mi
Dew Point: -2°   Wind: 14mph
Humidity: 57%   Direction: 170°S
Pressure: 29.99"   Gusts: NA
Location:  37.44°N, 96.76°W
Report Text: KEQA 260355Z AUTO 17012KT 10SM OVC110 06/M02 A2999 RMK AO2
Loading
Personal Weather Stations






























Interactive Weather Map New forecast layout! Learn more

10-Day Weather Forecast

Advertisements
Track Severe Weather on mobile